Time;durP1;ratioP1;P1;durP2;ratioP2;P2;SDS_P1;SDS_P2;PMS_P1;PMS_P2;Temp;Humidity;BMP_temperature;BMP_pressure;BME280_temperature;BME280_humidity;BME280_pressure;Samples;Min_cycle;Max_cycle;Signal;HPM_P1;HPM_P2
2023/07/21 00:02:15;;;;;;;6.43;1.40;;;13.70;99.90;;;;;;6217023;23;20227;-94
2023/07/21 00:04:41;;;;;;;4.50;1.40;;;13.70;99.90;;;;;;6217382;23;20328;-94
2023/07/21 00:07:08;;;;;;;1.93;1.50;;;13.70;99.90;;;;;;6217543;23;20176;-94
2023/07/21 00:09:36;;;;;;;1.97;1.60;;;13.70;99.90;;;;;;6217754;23;20199;-95
2023/07/21 00:12:04;;;;;;;2.83;1.60;;;13.70;99.90;;;;;;6217178;23;20247;-95
2023/07/21 00:14:31;;;;;;;2.87;1.30;;;13.70;1.00;;;;;;6217192;23;20686;-93
2023/07/21 00:16:57;;;;;;;1.70;1.60;;;13.70;1.00;;;;;;6217078;23;20172;-96
2023/07/21 00:19:24;;;;;;;2.00;1.40;;;13.70;1.00;;;;;;6217449;23;20173;-94
2023/07/21 00:21:51;;;;;;;2.97;1.77;;;13.80;1.00;;;;;;6216965;23;20254;-93
2023/07/21 00:24:20;;;;;;;2.57;1.60;;;13.80;1.00;;;;;;6217250;23;20168;-94
2023/07/21 00:26:48;;;;;;;3.33;1.50;;;13.80;1.00;;;;;;6217234;23;20182;-94
2023/07/21 00:29:15;;;;;;;2.70;1.50;;;13.90;1.00;;;;;;6217195;23;20178;-95
2023/07/21 00:31:46;;;;;;;2.40;1.43;;;14.00;1.00;;;;;;6216977;23;20250;-93
2023/07/21 00:34:13;;;;;;;1.87;1.50;;;14.00;1.00;;;;;;6217498;23;20160;-94
2023/07/21 00:36:40;;;;;;;2.47;1.33;;;14.00;1.00;;;;;;6217353;23;20267;-95
2023/07/21 00:39:09;;;;;;;3.07;1.47;;;14.00;1.00;;;;;;6219043;23;20227;-95
2023/07/21 00:41:36;;;;;;;4.00;1.50;;;14.00;1.00;;;;;;6218966;23;20171;-93
2023/07/21 00:44:08;;;;;;;1.83;1.57;;;14.00;1.00;;;;;;6219531;23;20183;-94
2023/07/21 00:46:35;;;;;;;2.63;1.50;;;14.00;1.00;;;;;;6218629;23;20204;-93
2023/07/21 00:49:03;;;;;;;2.43;1.37;;;14.00;1.00;;;;;;6219098;23;20669;-94
2023/07/21 00:51:30;;;;;;;1.70;1.30;;;14.00;1.00;;;;;;6218881;23;20632;-94
2023/07/21 00:53:57;;;;;;;2.90;1.40;;;14.00;1.00;;;;;;6218911;23;20220;-95
2023/07/21 00:56:25;;;;;;;2.00;1.30;;;14.00;1.00;;;;;;6219312;23;20177;-95
2023/07/21 00:58:52;;;;;;;2.23;1.40;;;14.00;1.00;;;;;;6218560;23;20168;-95
2023/07/21 01:01:22;;;;;;;2.30;1.30;;;13.90;1.00;;;;;;6219241;23;20249;-95
2023/07/21 01:03:49;;;;;;;2.23;1.30;;;13.90;1.00;;;;;;6218788;23;20186;-93
2023/07/21 01:06:17;;;;;;;2.97;1.37;;;13.90;1.00;;;;;;6218656;23;20604;-95
2023/07/21 01:08:45;;;;;;;1.50;1.30;;;13.90;1.00;;;;;;6218496;23;20549;-95
2023/07/21 01:11:13;;;;;;;3.57;1.50;;;13.80;1.00;;;;;;6219053;23;20180;-95
2023/07/21 01:13:40;;;;;;;1.87;1.50;;;13.80;1.00;;;;;;6218683;23;20168;-93
2023/07/21 01:16:08;;;;;;;5.40;1.80;;;13.70;1.00;;;;;;6218230;23;20175;-94
2023/07/21 01:18:37;;;;;;;1.50;1.30;;;13.60;1.00;;;;;;6219013;23;20195;-93
2023/07/21 01:21:05;;;;;;;1.97;1.40;;;13.60;17.20;;;;;;6218977;23;20563;-95
2023/07/21 01:23:39;;;;;;;1.60;1.10;;;13.50;84.60;;;;;;6218421;23;20186;-95
2023/07/21 01:26:09;;;;;;;2.53;1.40;;;13.50;99.90;;;;;;6218336;23;20166;-93
2023/07/21 01:28:39;;;;;;;3.80;1.50;;;13.50;99.90;;;;;;6218097;23;20228;-96
2023/07/21 01:31:06;;;;;;;2.50;1.63;;;13.50;99.90;;;;;;6218016;23;20175;-94
2023/07/21 01:33:35;;;;;;;2.20;1.47;;;13.60;99.90;;;;;;6218565;23;20493;-94
2023/07/21 01:36:03;;;;;;;1.63;1.50;;;13.60;99.90;;;;;;6218688;23;20183;-95
2023/07/21 01:38:32;;;;;;;2.97;1.23;;;13.60;99.90;;;;;;6218438;23;20172;-95
2023/07/21 01:40:59;;;;;;;1.90;1.40;;;13.50;99.90;;;;;;6218707;23;20255;-93
2023/07/21 01:43:27;;;;;;;2.70;1.37;;;13.50;99.90;;;;;;6218369;23;20189;-95
2023/07/21 01:45:54;;;;;;;1.90;1.20;;;13.50;99.90;;;;;;6218275;23;20193;-93
2023/07/21 01:48:21;;;;;;;2.30;1.40;;;13.40;99.90;;;;;;6218641;23;20263;-94
2023/07/21 01:50:49;;;;;;;1.73;1.23;;;13.40;99.90;;;;;;6218403;23;20545;-93
2023/07/21 01:53:22;;;;;;;8.13;2.10;;;13.30;99.90;;;;;;6218405;23;20253;-94
2023/07/21 01:55:57;;;;;;;2.73;1.97;;;13.20;99.90;;;;;;6218355;23;20232;-95
2023/07/21 01:58:26;;;;;;;3.67;1.93;;;13.10;99.90;;;;;;6218473;23;20154;-95
2023/07/21 02:00:55;;;;;;;5.80;1.90;;;13.10;99.90;;;;;;6218108;23;20228;-94
2023/07/21 02:03:23;;;;;;;3.00;2.00;;;13.00;99.90;;;;;;6217993;23;20183;-94
2023/07/21 02:05:51;;;;;;;4.00;2.40;;;12.90;99.90;;;;;;6218293;23;20170;-95
2023/07/21 02:08:20;;;;;;;3.13;2.30;;;12.80;99.90;;;;;;6219140;23;20230;-95
2023/07/21 02:10:47;;;;;;;3.53;2.20;;;12.70;1.00;;;;;;6218210;23;20166;-94
2023/07/21 02:13:15;;;;;;;3.47;2.57;;;12.70;1.00;;;;;;6217931;23;20223;-95
2023/07/21 02:15:42;;;;;;;7.37;2.30;;;12.60;1.00;;;;;;6218274;23;20169;-93
2023/07/21 02:18:10;;;;;;;5.23;2.30;;;12.50;1.00;;;;;;6218074;23;20165;-95
2023/07/21 02:20:37;;;;;;;3.10;2.23;;;12.50;1.00;;;;;;6217551;23;20180;-95
2023/07/21 02:23:04;;;;;;;2.57;2.00;;;12.50;1.00;;;;;;6217958;23;20214;-93
2023/07/21 02:25:31;;;;;;;8.73;2.20;;;12.40;1.00;;;;;;6218335;23;20176;-95
2023/07/21 02:27:59;;;;;;;4.20;2.47;;;12.40;1.00;;;;;;6217890;23;20172;-94
2023/07/21 02:30:25;;;;;;;2.60;1.80;;;12.40;58.90;;;;;;6217860;23;20207;-93
2023/07/21 02:32:52;;;;;;;3.63;2.30;;;12.40;99.90;;;;;;6217900;23;20186;-94
2023/07/21 02:35:20;;;;;;;3.83;2.00;;;12.30;99.90;;;;;;6218326;23;20176;-94
2023/07/21 02:37:47;;;;;;;4.17;2.60;;;12.30;99.90;;;;;;6217572;23;20721;-93
2023/07/21 02:40:14;;;;;;;3.33;2.20;;;12.30;99.90;;;;;;6217440;23;20522;-94
2023/07/21 02:42:42;;;;;;;2.97;2.10;;;12.20;99.90;;;;;;6217521;23;20188;-93
2023/07/21 02:45:10;;;;;;;3.53;2.03;;;12.20;99.90;;;;;;6217941;23;20195;-93
2023/07/21 02:47:37;;;;;;;2.03;1.83;;;12.20;99.90;;;;;;6218330;23;20252;-93
2023/07/21 02:50:09;;;;;;;3.97;2.20;;;12.20;1.00;;;;;;6217898;23;20173;-94
2023/07/21 02:52:38;;;;;;;2.93;2.00;;;12.20;1.00;;;;;;6218236;23;20238;-93
2023/07/21 02:55:07;;;;;;;4.20;2.00;;;12.20;1.00;;;;;;6217436;23;20204;-92
2023/07/21 02:57:34;;;;;;;3.07;2.00;;;12.10;1.00;;;;;;6217820;23;20173;-93
2023/07/21 03:00:03;;;;;;;3.00;2.10;;;12.10;1.00;;;;;;6217413;23;20178;-93
2023/07/21 03:02:33;;;;;;;4.63;2.50;;;12.20;1.00;;;;;;6217392;23;20235;-93
2023/07/21 03:05:03;;;;;;;2.70;2.03;;;12.10;1.00;;;;;;6217785;23;20156;-94
2023/07/21 03:07:30;;;;;;;3.50;1.90;;;12.10;1.00;;;;;;6217692;23;20183;-92
2023/07/21 03:09:58;;;;;;;2.80;2.20;;;12.10;1.00;;;;;;6217212;23;20533;-93
2023/07/21 03:12:25;;;;;;;2.90;2.10;;;12.00;1.00;;;;;;6217785;23;20174;-91
2023/07/21 03:14:52;;;;;;;4.27;2.30;;;12.10;1.00;;;;;;6217317;23;20244;-93
2023/07/21 03:17:19;;;;;;;2.20;2.00;;;12.10;1.00;;;;;;6217243;23;20232;-93
2023/07/21 03:19:48;;;;;;;5.03;2.10;;;12.10;1.00;;;;;;6217101;23;20204;-94
2023/07/21 03:22:16;;;;;;;3.20;2.20;;;12.10;1.00;;;;;;6217503;23;20542;-94
2023/07/21 03:24:43;;;;;;;2.57;2.10;;;12.20;1.00;;;;;;6217600;23;20262;-94
2023/07/21 03:27:12;;;;;;;7.00;2.50;;;12.20;1.00;;;;;;6218007;23;20230;-93
2023/07/21 03:29:39;;;;;;;4.20;2.63;;;12.20;1.00;;;;;;6217803;23;20172;-94
2023/07/21 03:32:07;;;;;;;7.93;2.70;;;12.20;1.00;;;;;;6217463;23;20265;-92
2023/07/21 03:34:35;;;;;;;3.50;2.20;;;12.20;44.10;;;;;;6217284;23;20219;-95
2023/07/21 03:37:07;;;;;;;4.77;2.40;;;12.30;46.60;;;;;;6217215;23;20176;-93
2023/07/21 03:39:34;;;;;;;3.30;2.23;;;12.30;94.20;;;;;;6217287;23;20243;-93
2023/07/21 03:42:01;;;;;;;3.63;2.37;;;12.40;99.90;;;;;;6217547;23;20165;-94
2023/07/21 03:44:29;;;;;;;7.60;2.60;;;12.40;99.90;;;;;;6216937;23;20710;-94
2023/07/21 03:46:56;;;;;;;4.50;2.63;;;12.50;99.90;;;;;;6217508;23;20236;-93
2023/07/21 03:49:23;;;;;;;4.50;2.40;;;12.50;99.90;;;;;;6217459;23;20192;-93
2023/07/21 03:51:50;;;;;;;3.10;2.27;;;12.60;99.90;;;;;;6217006;23;20223;-93
2023/07/21 03:54:16;;;;;;;3.30;2.33;;;12.60;99.90;;;;;;6216843;23;20258;-94
2023/07/21 03:56:43;;;;;;;3.93;2.53;;;12.70;99.90;;;;;;6216876;23;20716;-94
2023/07/21 03:59:11;;;;;;;4.47;2.33;;;12.70;99.90;;;;;;6217339;23;20764;-96
2023/07/21 04:01:39;;;;;;;3.87;2.20;;;12.80;99.90;;;;;;6217449;23;20178;-96
2023/07/21 04:04:06;;;;;;;6.07;2.70;;;13.00;1.00;;;;;;6216850;23;20189;-95
2023/07/21 04:06:33;;;;;;;2.80;2.40;;;13.50;21.60;;;;;;6217382;23;20175;-95
2023/07/21 04:09:00;;;;;;;2.83;2.07;;;14.30;1.00;;;;;;6216748;23;20190;-95
2023/07/21 04:11:27;;;;;;;2.73;2.20;;;14.90;99.90;;;;;;6217437;23;20180;-95
2023/07/21 04:13:54;;;;;;;1.65;1.50;;;15.60;1.00;;;;;;6216566;23;20170;-95
2023/07/21 04:16:21;;;;;;;2.85;1.67;;;16.10;1.00;;;;;;6216880;23;20190;-96
2023/07/21 04:18:49;;;;;;;2.25;1.60;;;16.60;99.90;;;;;;6217519;23;20175;-95
2023/07/21 04:21:16;;;;;;;2.50;1.85;;;17.10;1.00;;;;;;6217980;23;20182;-95
2023/07/21 04:23:43;;;;;;;2.40;1.58;;;17.50;99.90;;;;;;6219498;23;20212;-95
2023/07/21 04:26:11;;;;;;;2.00;1.30;;;17.80;99.90;;;;;;6218082;23;20196;-95
2023/07/21 04:28:38;;;;;;;5.88;1.65;;;18.10;1.00;;;;;;6219973;23;20241;-95
2023/07/21 04:31:05;;;;;;;8.18;1.85;;;18.50;1.00;;;;;;6219286;23;20172;-96
2023/07/21 04:33:32;;;;;;;15.60;7.70;;;18.70;1.00;;;;;;6219702;23;20169;-96
2023/07/21 04:36:00;;;;;;;31.45;13.77;;;19.10;99.90;;;;;;6226683;23;20219;-95
2023/07/21 04:38:27;;;;;;;49.33;21.88;;;19.30;99.90;;;;;;6227400;23;20176;-96
2023/07/21 04:40:54;;;;;;;28.30;14.25;;;19.60;99.90;;;;;;6230877;23;20172;-96
2023/07/21 04:43:22;;;;;;;8.63;4.60;;;19.80;91.50;;;;;;6232797;23;20195;-96
2023/07/21 04:45:49;;;;;;;4.80;2.67;;;20.00;1.00;;;;;;6228890;23;20196;-96
2023/07/21 04:48:16;;;;;;;5.10;1.90;;;20.30;1.00;;;;;;6227584;23;20161;-96
2023/07/21 04:50:43;;;;;;;10.25;2.83;;;20.50;1.00;;;;;;6237177;23;20243;-96
2023/07/21 04:53:12;;;;;;;6.43;3.75;;;20.60;1.00;;;;;;6236771;23;20219;-96
2023/07/21 04:55:39;;;;;;;5.75;3.83;;;20.90;1.00;;;;;;6239071;23;20172;-96
2023/07/21 04:58:08;;;;;;;8.25;4.28;;;21.20;1.00;;;;;;6235208;23;20165;-96
2023/07/21 05:00:35;;;;;;;8.32;3.65;;;21.30;1.00;;;;;;6226067;23;20509;-96
2023/07/21 05:03:02;;;;;;;6.10;3.05;;;21.20;1.00;;;;;;6219992;23;20223;-96
2023/07/21 05:05:30;;;;;;;3.88;2.10;;;20.80;1.00;;;;;;6221330;23;20224;-96
2023/07/21 05:07:59;;;;;;;2.58;1.60;;;20.40;1.00;;;;;;6229817;23;20179;-96
2023/07/21 05:10:30;;;;;;;2.17;1.50;;;20.00;1.00;;;;;;6237644;23;20195;-96
2023/07/21 05:12:59;;;;;;;3.28;1.80;;;19.60;1.00;;;;;;6235573;23;20184;-96
2023/07/21 05:15:26;;;;;;;2.67;1.23;;;19.40;1.00;;;;;;6235025;23;20169;-94
2023/07/21 05:17:54;;;;;;;3.67;1.50;;;19.10;1.00;;;;;;6223887;22;20247;-94
2023/07/21 05:20:21;;;;;;;3.33;1.40;;;18.90;1.00;;;;;;6223433;23;20192;-96
2023/07/21 05:22:49;;;;;;;2.67;1.70;;;18.70;1.00;;;;;;6221209;23;20248;-95
2023/07/21 05:25:18;;;;;;;10.20;2.95;;;18.50;1.00;;;;;;6223225;23;20169;-94
2023/07/21 05:27:49;;;;;;;5.25;2.25;;;18.40;1.00;;;;;;6234470;23;20163;-95
2023/07/21 05:30:17;;;;;;;7.22;2.88;;;18.30;1.00;;;;;;6236214;23;20164;-95
2023/07/21 05:32:44;;;;;;;5.55;2.13;;;18.20;1.00;;;;;;6222745;23;20172;-95
2023/07/21 05:35:13;;;;;;;6.97;2.10;;;18.20;39.30;;;;;;6223028;23;20616;-96
2023/07/21 05:37:40;;;;;;;2.95;1.70;;;18.20;78.50;;;;;;6221665;23;20177;-95
2023/07/21 05:40:11;;;;;;;5.90;2.78;;;18.20;85.00;;;;;;6226283;23;20180;-95
2023/07/21 05:42:38;;;;;;;13.50;3.70;;;18.20;99.90;;;;;;6226067;23;20245;-95
2023/07/21 05:45:11;;;;;;;4.68;2.70;;;18.20;99.90;;;;;;6229783;23;20193;-95
2023/07/21 05:47:38;;;;;;;3.55;2.00;;;18.20;99.90;;;;;;6233952;23;20162;-96
2023/07/21 05:50:07;;;;;;;3.38;1.92;;;18.30;99.90;;;;;;6232932;23;20196;-96
2023/07/21 05:52:34;;;;;;;2.85;1.50;;;18.30;99.90;;;;;;6239928;23;20169;-96
2023/07/21 05:55:03;;;;;;;3.90;1.50;;;18.30;99.90;;;;;;6236254;23;20197;-96
2023/07/21 05:57:30;;;;;;;3.38;1.50;;;18.40;99.90;;;;;;6226031;23;20223;-95
2023/07/21 05:59:58;;;;;;;2.28;1.10;;;18.50;99.90;;;;;;6218958;23;20204;-95
2023/07/21 06:02:26;;;;;;;3.13;1.30;;;18.50;99.90;;;;;;6218107;23;20173;-93
2023/07/21 06:04:56;;;;;;;1.98;1.23;;;18.60;93.20;;;;;;6218349;23;20247;-95
2023/07/21 06:07:23;;;;;;;2.13;1.23;;;18.60;23.60;;;;;;6218618;23;20203;-94
2023/07/21 06:09:50;;;;;;;7.05;2.10;;;18.60;19.60;;;;;;6218701;23;20184;-95
2023/07/21 06:12:18;;;;;;;2.40;1.40;;;18.70;28.00;;;;;;6218135;23;20184;-95
2023/07/21 06:14:45;;;;;;;2.92;1.05;;;18.70;44.70;;;;;;6218653;23;20635;-96
2023/07/21 06:17:12;;;;;;;26.77;9.32;;;18.80;21.60;;;;;;6218170;23;20251;-96
2023/07/21 06:19:40;;;;;;;4.18;1.65;;;18.90;23.70;;;;;;6217803;23;20253;-94
2023/07/21 06:22:07;;;;;;;5.63;2.20;;;19.00;1.00;;;;;;6218118;23;20219;-93
2023/07/21 06:24:34;;;;;;;15.70;5.47;;;19.10;1.00;;;;;;6218047;23;20190;-95
2023/07/21 06:27:01;;;;;;;59.45;20.23;;;19.20;1.00;;;;;;6217667;23;20169;-94
2023/07/21 06:29:28;;;;;;;27.08;9.25;;;19.20;1.00;;;;;;6218107;23;20169;-94
2023/07/21 06:31:55;;;;;;;63.75;21.33;;;19.20;1.00;;;;;;6218374;23;20251;-93
2023/07/21 06:34:23;;;;;;;67.15;22.15;;;19.30;1.00;;;;;;6217511;23;20253;-95
2023/07/21 06:36:51;;;;;;;35.03;10.85;;;19.30;1.00;;;;;;6218058;23;20169;-95
2023/07/21 06:39:18;;;;;;;8.32;2.42;;;19.30;1.00;;;;;;6217897;23;20638;-94
2023/07/21 06:41:45;;;;;;;3.25;1.50;;;19.40;1.00;;;;;;6218152;23;20230;-94
2023/07/21 06:44:12;;;;;;;2.75;0.95;;;19.50;1.00;;;;;;6217639;23;20181;-94
2023/07/21 06:46:39;;;;;;;4.40;2.05;;;19.50;1.00;;;;;;6218145;23;20208;-95
2023/07/21 06:49:06;;;;;;;3.92;1.65;;;19.60;1.00;;;;;;6218157;23;20578;-94
2023/07/21 06:51:32;;;;;;;5.25;1.77;;;19.70;1.00;;;;;;6216858;23;20197;-94
2023/07/21 06:54:03;;;;;;;3.15;1.10;;;19.80;1.00;;;;;;6217807;23;20225;-94
2023/07/21 06:56:30;;;;;;;3.33;1.42;;;19.90;1.00;;;;;;6217935;23;20256;-95
2023/07/21 06:58:58;;;;;;;17.58;6.53;;;20.00;1.00;;;;;;6217349;23;20166;-95
2023/07/21 07:01:25;;;;;;;48.72;16.08;;;20.10;1.00;;;;;;6217421;23;20193;-94
2023/07/21 07:03:52;;;;;;;7.20;2.22;;;20.10;1.00;;;;;;6217390;23;20465;-95
2023/07/21 07:06:19;;;;;;;20.63;7.18;;;20.10;1.00;;;;;;6217973;23;20173;-95
2023/07/21 07:08:46;;;;;;;41.35;13.10;;;20.10;1.00;;;;;;6217971;23;20191;-95
2023/07/21 07:11:14;;;;;;;13.23;4.75;;;20.10;1.00;;;;;;6217974;23;20172;-92
2023/07/21 07:13:41;;;;;;;11.00;3.10;;;20.10;1.00;;;;;;6217563;23;20251;-95
2023/07/21 07:16:09;;;;;;;2.90;1.10;;;20.20;1.00;;;;;;6217123;23;20208;-93
2023/07/21 07:18:35;;;;;;;6.43;1.95;;;20.30;1.00;;;;;;6216908;23;20173;-95
2023/07/21 07:21:03;;;;;;;11.90;3.90;;;20.30;1.00;;;;;;6217816;23;20241;-94
2023/07/21 07:23:30;;;;;;;4.90;1.88;;;20.40;1.00;;;;;;6217311;23;20631;-96
2023/07/21 07:25:57;;;;;;;8.73;2.83;;;20.50;1.00;;;;;;6217494;23;20188;-95
2023/07/21 07:28:25;;;;;;;6.20;2.60;;;20.50;1.00;;;;;;6217332;23;20204;-94
2023/07/21 07:30:52;;;;;;;6.10;2.55;;;20.50;1.00;;;;;;6217352;23;20609;-96
2023/07/21 07:33:19;;;;;;;8.00;3.00;;;20.60;1.00;;;;;;6217802;23;20169;-94
2023/07/21 07:35:49;;;;;;;3.65;1.58;;;20.60;1.00;;;;;;6217353;23;20169;-96
2023/07/21 07:38:19;;;;;;;6.68;2.05;;;20.60;1.00;;;;;;6217010;23;20216;-95
2023/07/21 07:40:47;;;;;;;3.05;1.30;;;20.70;1.00;;;;;;6217912;23;20197;-94
2023/07/21 07:43:13;;;;;;;5.22;1.90;;;20.80;1.00;;;;;;6217316;23;20500;-94
2023/07/21 07:45:43;;;;;;;5.00;1.80;;;21.00;99.90;;;;;;6216733;23;20220;-93
2023/07/21 07:48:10;;;;;;;5.07;1.92;;;21.20;99.90;;;;;;6217392;23;20169;-95
2023/07/21 07:50:39;;;;;;;2.45;0.90;;;21.30;99.90;;;;;;6217658;23;20200;-95
2023/07/21 07:53:06;;;;;;;3.95;1.73;;;21.40;99.90;;;;;;6217484;23;20169;-94
2023/07/21 07:55:37;;;;;;;3.10;1.45;;;21.60;99.90;;;;;;6217645;23;20168;-96
2023/07/21 07:58:05;;;;;;;3.42;1.27;;;21.90;99.90;;;;;;6217177;23;20188;-95
2023/07/21 08:00:35;;;;;;;2.78;1.30;;;22.10;99.90;;;;;;6216818;23;20172;-95
2023/07/21 08:03:04;;;;;;;4.85;2.67;;;22.40;99.90;;;;;;6217058;23;20207;-95
2023/07/21 08:05:30;;;;;;;4.82;1.85;;;23.00;99.90;;;;;;6217334;23;20193;-94
2023/07/21 08:07:58;;;;;;;4.88;2.35;;;23.50;99.90;;;;;;6217343;23;20252;-93
2023/07/21 08:10:27;;;;;;;6.13;2.75;;;23.80;99.90;;;;;;6217924;23;20169;-94
2023/07/21 08:12:54;;;;;;;4.85;1.60;;;23.80;99.90;;;;;;6217162;23;20619;-95
2023/07/21 08:15:21;;;;;;;5.68;2.47;;;23.90;99.90;;;;;;6216507;23;20169;-94
2023/07/21 08:17:48;;;;;;;2.80;1.05;;;24.00;99.90;;;;;;6216730;23;20215;-95
2023/07/21 08:20:18;;;;;;;1.45;0.68;;;24.20;99.90;;;;;;6217138;23;20176;-94
2023/07/21 08:22:45;;;;;;;15.25;10.75;;;24.60;99.90;;;;;;6216717;23;20169;-94
2023/07/21 08:25:12;;;;;;;9.52;6.90;;;25.00;99.90;;;;;;6216934;23;20209;-95
2023/07/21 08:27:39;;;;;;;4.45;2.47;;;25.00;99.90;;;;;;6217201;23;20204;-93
2023/07/21 08:30:08;;;;;;;5.13;2.10;;;25.00;99.90;;;;;;6216707;23;20166;-94
2023/07/21 08:32:35;;;;;;;2.35;0.90;;;25.10;99.90;;;;;;6217360;23;20175;-94
2023/07/21 08:35:02;;;;;;;7.55;3.38;;;25.30;99.90;;;;;;6217224;23;20165;-94
2023/07/21 08:37:30;;;;;;;3.47;1.30;;;25.60;99.90;;;;;;6216653;23;20173;-96
2023/07/21 08:39:57;;;;;;;4.28;1.90;;;25.90;99.90;;;;;;6216843;23;20172;-95
2023/07/21 08:42:26;;;;;;;3.83;1.33;;;26.30;99.90;;;;;;6217120;23;20643;-93
2023/07/21 08:44:54;;;;;;;2.90;1.80;;;26.40;99.90;;;;;;6216505;23;20662;-94
2023/07/21 08:47:21;;;;;;;2.63;1.20;;;26.50;99.90;;;;;;6217038;23;20169;-95
2023/07/21 08:49:48;;;;;;;3.33;1.48;;;26.40;99.90;;;;;;6216647;23;20169;-94
2023/07/21 08:52:15;;;;;;;7.85;2.33;;;26.20;99.90;;;;;;6216402;23;20556;-95
2023/07/21 08:54:44;;;;;;;3.83;1.40;;;25.90;99.90;;;;;;6217199;23;20171;-95
2023/07/21 08:57:12;;;;;;;1.42;0.90;;;25.80;99.90;;;;;;6217005;23;20189;-94
2023/07/21 08:59:39;;;;;;;3.95;2.15;;;25.90;99.90;;;;;;6218974;23;20623;-93
2023/07/21 09:02:06;;;;;;;2.92;0.95;;;26.00;99.90;;;;;;6218788;23;20191;-95
2023/07/21 09:04:33;;;;;;;3.83;1.13;;;26.10;99.90;;;;;;6218864;23;20216;-94
2023/07/21 09:07:02;;;;;;;1.50;0.80;;;26.30;99.90;;;;;;6218716;23;20180;-95
2023/07/21 09:09:30;;;;;;;2.97;0.90;;;26.60;99.90;;;;;;6219018;23;20503;-94
2023/07/21 09:12:03;;;;;;;1.27;0.80;;;26.70;99.90;;;;;;6218778;23;20261;-95
2023/07/21 09:14:39;;;;;;;3.88;1.30;;;26.90;99.90;;;;;;6219218;23;20228;-94
2023/07/21 09:17:08;;;;;;;9.50;1.10;;;26.70;99.90;;;;;;6218594;23;20185;-94
2023/07/21 09:19:36;;;;;;;2.20;1.60;;;26.40;99.90;;;;;;6218801;23;20192;-94
2023/07/21 09:22:03;;;;;;;6.65;5.25;;;26.20;99.90;;;;;;6218150;23;20171;-94
2023/07/21 09:24:30;;;;;;;2.17;1.20;;;26.10;99.90;;;;;;6218880;23;20565;-94
2023/07/21 09:27:12;;;;;;;2.67;1.55;;;26.00;99.90;;;;;;6218809;23;20524;-94
2023/07/21 09:29:40;;;;;;;1.70;1.15;;;25.90;99.90;;;;;;6218400;23;20176;-94
2023/07/21 09:32:12;;;;;;;1.73;1.10;;;25.80;99.90;;;;;;6218245;23;20198;-95
2023/07/21 09:34:54;;;;;;;2.15;1.17;;;25.60;99.90;;;;;;6218797;23;20153;-95
2023/07/21 09:37:21;;;;;;;3.42;0.90;;;25.30;99.90;;;;;;6218694;23;20490;-94
2023/07/21 09:39:53;;;;;;;3.47;0.98;;;25.00;99.90;;;;;;6218614;23;20259;-94
2023/07/21 09:42:23;;;;;;;1.98;1.30;;;24.80;99.90;;;;;;6218102;23;20164;-95
2023/07/21 09:44:51;;;;;;;3.53;0.88;;;24.60;99.90;;;;;;6218013;23;20196;-96
2023/07/21 09:47:19;;;;;;;2.25;1.20;;;24.40;99.90;;;;;;6218113;23;20211;-94
2023/07/21 09:49:48;;;;;;;2.10;1.20;;;24.30;99.90;;;;;;6218629;23;20169;-95
2023/07/21 09:52:16;;;;;;;3.25;1.00;;;24.10;99.90;;;;;;6218539;23;20176;-96
2023/07/21 09:54:45;;;;;;;2.33;0.90;;;24.00;99.90;;;;;;6218350;23;20211;-96
2023/07/21 09:57:12;;;;;;;1.38;1.08;;;23.80;99.90;;;;;;6218427;23;20199;-95
2023/07/21 09:59:44;;;;;;;1.55;0.93;;;23.80;99.90;;;;;;6218333;23;20180;-96
2023/07/21 10:02:12;;;;;;;1.90;0.90;;;23.70;99.90;;;;;;6218083;23;20645;-96
2023/07/21 10:04:39;;;;;;;1.60;1.00;;;23.60;99.90;;;;;;6217970;23;20189;-96
2023/07/21 10:07:09;;;;;;;2.47;1.33;;;23.40;99.90;;;;;;6218148;23;20200;-95
2023/07/21 10:09:37;;;;;;;2.40;1.80;;;23.40;99.90;;;;;;6218098;23;20195;-95
2023/07/21 10:12:11;;;;;;;2.05;1.00;;;23.30;99.90;;;;;;6218120;23;20166;-96
2023/07/21 10:14:40;;;;;;;3.60;1.08;;;23.30;99.90;;;;;;6218015;23;20195;-95
2023/07/21 10:17:08;;;;;;;3.58;1.00;;;23.30;99.90;;;;;;6218128;23;20173;-96
2023/07/21 10:19:42;;;;;;;3.92;1.55;;;23.20;99.90;;;;;;6217705;23;20215;-96
2023/07/21 10:22:12;;;;;;;3.80;0.93;;;23.10;99.90;;;;;;6217630;23;20199;-96
2023/07/21 10:24:45;;;;;;;11.77;1.77;;;22.90;99.90;;;;;;6218105;23;20176;-95
2023/07/21 10:27:21;;;;;;;3.10;1.30;;;22.70;99.90;;;;;;6217918;23;20154;-95
2023/07/21 10:29:52;;;;;;;2.20;1.00;;;22.60;99.90;;;;;;6218272;23;20153;-96
2023/07/21 10:32:20;;;;;;;2.53;1.00;;;22.60;99.90;;;;;;6218177;23;20484;-96
2023/07/21 10:34:48;;;;;;;1.02;0.93;;;22.60;99.90;;;;;;6218709;23;20256;-96
2023/07/21 10:37:15;;;;;;;3.17;2.03;;;22.70;99.90;;;;;;6219113;23;20248;-96
2023/07/21 10:39:53;;;;;;;3.63;1.13;;;22.90;99.90;;;;;;6205023;23;20225;-94
2023/07/21 10:42:20;;;;;;;1.75;1.00;;;23.10;99.90;;;;;;6217305;23;20167;-95
2023/07/21 10:44:48;;;;;;;4.93;1.23;;;23.30;99.90;;;;;;6217447;23;20189;-96
2023/07/21 10:47:16;;;;;;;2.17;0.90;;;23.40;99.90;;;;;;6218446;23;20249;-96
2023/07/21 10:49:44;;;;;;;3.30;1.00;;;23.50;99.90;;;;;;6217780;23;20165;-96
2023/07/21 10:52:11;;;;;;;2.55;1.00;;;23.60;99.90;;;;;;6218679;23;20227;-95
2023/07/21 10:54:39;;;;;;;3.45;1.27;;;23.80;99.90;;;;;;6217984;23;20173;-95
2023/07/21 10:57:06;;;;;;;2.28;1.23;;;23.90;99.90;;;;;;6218405;23;20243;-96
2023/07/21 10:59:35;;;;;;;1.73;1.10;;;24.00;99.90;;;;;;6218993;23;20639;-96
2023/07/21 11:02:06;;;;;;;3.53;0.90;;;24.10;99.90;;;;;;6217584;23;20171;-96
2023/07/21 11:04:33;;;;;;;4.05;1.05;;;24.20;99.90;;;;;;6217629;23;20855;-95
2023/07/21 11:07:01;;;;;;;2.13;1.13;;;24.40;99.90;;;;;;6217723;23;20199;-95
2023/07/21 11:09:33;;;;;;;3.17;1.30;;;24.40;99.90;;;;;;6217538;23;20607;-94
2023/07/21 11:12:01;;;;;;;2.50;1.20;;;24.60;99.90;;;;;;6218035;23;20153;-95
2023/07/21 11:14:29;;;;;;;5.20;1.10;;;24.80;99.90;;;;;;6217380;23;20185;-95
2023/07/21 11:16:57;;;;;;;1.83;1.10;;;25.10;99.90;;;;;;6217726;23;20173;-94
2023/07/21 11:19:27;;;;;;;1.75;1.08;;;25.40;99.90;;;;;;6218020;23;20203;-95
2023/07/21 11:21:54;;;;;;;3.63;1.13;;;25.60;99.90;;;;;;6217271;23;20248;-94
2023/07/21 11:24:23;;;;;;;2.42;1.10;;;25.90;99.90;;;;;;6217210;23;20196;-96
2023/07/21 11:26:51;;;;;;;2.22;0.98;;;26.20;99.90;;;;;;6217330;23;20192;-95
2023/07/21 11:29:18;;;;;;;2.28;0.90;;;26.30;99.90;;;;;;6217309;23;20192;-95
2023/07/21 11:31:45;;;;;;;2.50;1.00;;;26.50;99.90;;;;;;6205102;23;20171;-95
2023/07/21 11:34:19;;;;;;;1.23;0.90;;;26.70;99.90;;;;;;6217226;23;20188;-94
2023/07/21 11:36:48;;;;;;;2.30;0.90;;;26.90;99.90;;;;;;6217702;23;20187;-94
2023/07/21 11:39:20;;;;;;;1.70;1.00;;;27.20;99.90;;;;;;6217045;23;20572;-96
2023/07/21 11:41:53;;;;;;;0.90;0.80;;;27.30;99.90;;;;;;6217732;23;20187;-94
2023/07/21 11:44:25;;;;;;;2.00;0.98;;;27.20;99.90;;;;;;6217019;23;20177;-95
2023/07/21 11:47:05;;;;;;;2.63;1.05;;;27.10;99.90;;;;;;6217178;23;20264;-95
2023/07/21 11:49:37;;;;;;;2.00;0.90;;;27.00;99.90;;;;;;6217089;23;20244;-95
2023/07/21 11:52:07;;;;;;;3.92;1.00;;;27.10;99.90;;;;;;6216951;23;20220;-94
2023/07/21 11:54:38;;;;;;;1.90;1.10;;;27.30;99.90;;;;;;6217692;23;20169;-94
2023/07/21 11:57:05;;;;;;;1.90;1.00;;;27.40;99.90;;;;;;6218257;23;20208;-96
2023/07/21 11:59:33;;;;;;;3.45;1.00;;;27.60;99.90;;;;;;6217052;23;20173;-96
2023/07/21 12:02:00;;;;;;;1.13;1.00;;;27.70;99.90;;;;;;6216960;23;20185;-96
2023/07/21 12:04:27;;;;;;;2.17;1.10;;;27.70;99.90;;;;;;6217043;23;20180;-96
2023/07/21 12:06:54;;;;;;;2.95;1.27;;;27.60;99.90;;;;;;6217108;23;20219;-95
2023/07/21 12:09:23;;;;;;;4.35;1.73;;;27.50;99.90;;;;;;6217523;23;20165;-96
2023/07/21 12:11:50;;;;;;;1.40;1.10;;;27.30;99.90;;;;;;6217102;23;20173;-95
2023/07/21 12:14:17;;;;;;;3.70;1.10;;;27.20;99.90;;;;;;6217059;23;20216;-95
2023/07/21 12:16:45;;;;;;;2.42;1.13;;;27.30;99.90;;;;;;6217133;23;20188;-95
2023/07/21 12:19:13;;;;;;;1.30;1.00;;;27.40;99.90;;;;;;6216792;23;20626;-95
2023/07/21 12:21:41;;;;;;;1.17;1.00;;;27.60;99.90;;;;;;6217003;23;20539;-95
2023/07/21 12:24:09;;;;;;;2.55;1.05;;;27.80;99.90;;;;;;6217171;23;20173;-94
2023/07/21 12:26:38;;;;;;;1.80;1.02;;;27.80;99.90;;;;;;6216912;23;20227;-96
2023/07/21 12:29:05;;;;;;;1.85;1.15;;;27.70;99.90;;;;;;6216762;23;20204;-95
2023/07/21 12:31:32;;;;;;;1.55;1.00;;;27.60;99.90;;;;;;6217199;23;20239;-95
2023/07/21 12:33:59;;;;;;;1.80;1.10;;;27.40;99.90;;;;;;6216717;23;20659;-96
2023/07/21 12:36:25;;;;;;;1.23;1.00;;;27.10;99.80;;;;;;6217130;23;20200;-94
2023/07/21 12:38:52;;;;;;;2.40;1.10;;;27.00;99.90;;;;;;6217282;23;20251;-95
2023/07/21 12:41:19;;;;;;;1.17;0.90;;;26.90;98.60;;;;;;6216952;23;20169;-95
2023/07/21 12:43:47;;;;;;;1.98;1.00;;;26.90;99.90;;;;;;6217034;23;20251;-95
2023/07/21 12:46:14;;;;;;;1.73;1.10;;;27.20;99.90;;;;;;6216847;23;20264;-96
2023/07/21 12:48:42;;;;;;;1.73;1.00;;;27.50;99.90;;;;;;6216862;23;20635;-96
2023/07/21 12:51:10;;;;;;;1.40;1.00;;;27.70;99.90;;;;;;6217060;23;20256;-95
2023/07/21 12:53:37;;;;;;;1.35;0.82;;;27.70;99.40;;;;;;6217320;23;20164;-96
2023/07/21 12:56:04;;;;;;;2.00;1.00;;;27.70;99.90;;;;;;6217370;23;20195;-94